Excellence — KTDP — position and weather

sailwx.info

Track history (hours):
 
Tides and Currents Weather Stations Pressure Air Temp Water Temp Dewpoint Dewpoint Depression Visibility Wind Speed Wind Dir Waves Ship Positions

Excellence

Owner: ALASKA JOINT VENTURE SEAFOODS INC, SEATTLE, WA. More information available from US FCC via Universal Licensing System and Coast Guard Vessel Documentation Center.

Last reported at 2015-Apr-10 01:18 UTC. Time now 2015-May-03 19:55 UTC.
Position N 47°38' W 122°23'.
Warning: this ship's position is 23 days out of date.

Length 112 m; draft 7 m.

Type: Fishing. MMSI: 338162000.

Date/timePositionNaut miles runAvg speedWind from/ knotsBaromVisibWave heightAir tempDewpointWater temp
2015-Apr-10 01:18N 47°38' W 122°23'1 1.2
2015-Apr-10 00:33N 47°38' W 122°24'5 5.0
2015-Apr-09 23:33N 47°42' W 122°28'9 9.3
2015-Apr-09 22:33N 47°51' W 122°29'1211.4
2015-Apr-09 21:33N 48°01' W 122°38'1111.1
2015-Apr-09 20:33N 48°10' W 122°47'1212.2
2015-Apr-09 19:33N 48°12' W 123°05'1212.0
2015-Apr-09 18:33N 48°13' W 123°23'1211.9
2015-Apr-09 17:33N 48°13' W 123°41'1312.6
2015-Apr-09 16:33N 48°15' W 123°59'1313.2
2015-Apr-09 15:33N 48°21' W 124°17'1313.5
2015-Apr-09 14:33N 48°26' W 124°36'1313.4
2015-Apr-09 13:33N 48°29' W 124°56'1312.6
2015-Apr-09 12:33N 48°30' W 125°14'1413.5
2015-Apr-09 11:34N 48°37' W 125°33'1414.0
2015-Apr-09 10:33N 48°43' W 125°51'1413.7
2015-Apr-09 09:33N 48°50' W 126°10'1413.8
2015-Apr-09 08:34N 48°56' W 126°28'1414.2
2015-Apr-09 07:33N 49°02' W 126°48'1513.7
2015-Apr-09 06:29N 49°08' W 127°08'1313.8
2015-Apr-09 05:31N 49°14' W 127°27'1713.5
2015-Apr-09 04:15N 49°22' W 127°50'1113.8
2015-Apr-09 03:26N 49°27' W 128°05'  
Track history (hours):
 
Tides and Currents Weather Stations Pressure Air Temp Water Temp Dewpoint Dewpoint Depression Visibility Wind Speed Wind Dir Waves Ship Positions

Excellence

Owner: ALASKA JOINT VENTURE SEAFOODS INC, SEATTLE, WA. More information available from US FCC via Universal Licensing System and Coast Guard Vessel Documentation Center.

Last reported at 2015-Apr-10 01:18 UTC. Time now 2015-May-03 19:55 UTC.
Position N 47°38' W 122°23'.
Warning: this ship's position is 23 days out of date.

Length 112 m; draft 7 m.

Type: Fishing. MMSI: 338162000.

Date/timePositionNaut miles runAvg speedWind from/ knotsBaromVisibWave heightAir tempDewpointWater temp
2015-Apr-10 01:18N 47°38' W 122°23'1 1.2
2015-Apr-10 00:33N 47°38' W 122°24'5 5.0
2015-Apr-09 23:33N 47°42' W 122°28'9 9.3
2015-Apr-09 22:33N 47°51' W 122°29'1211.4
2015-Apr-09 21:33N 48°01' W 122°38'1111.1
2015-Apr-09 20:33N 48°10' W 122°47'1212.2
2015-Apr-09 19:33N 48°12' W 123°05'1212.0
2015-Apr-09 18:33N 48°13' W 123°23'1211.9
2015-Apr-09 17:33N 48°13' W 123°41'1312.6
2015-Apr-09 16:33N 48°15' W 123°59'1313.2
2015-Apr-09 15:33N 48°21' W 124°17'1313.5
2015-Apr-09 14:33N 48°26' W 124°36'1313.4
2015-Apr-09 13:33N 48°29' W 124°56'1312.6
2015-Apr-09 12:33N 48°30' W 125°14'1413.5
2015-Apr-09 11:34N 48°37' W 125°33'1414.0
2015-Apr-09 10:33N 48°43' W 125°51'1413.7
2015-Apr-09 09:33N 48°50' W 126°10'1413.8
2015-Apr-09 08:34N 48°56' W 126°28'1414.2
2015-Apr-09 07:33N 49°02' W 126°48'1513.7
2015-Apr-09 06:29N 49°08' W 127°08'1313.8
2015-Apr-09 05:31N 49°14' W 127°27'1713.5
2015-Apr-09 04:15N 49°22' W 127°50'1113.8
2015-Apr-09 03:26N 49°27' W 128°05'  

Dump ship's entire track history